createdAt,value
2022-10-09T00:01:14.254Z,98606.50
2022-10-09T00:03:43.735Z,98605.78
2022-10-09T00:06:13.877Z,98611.44
2022-10-09T00:08:43.489Z,98602.66
2022-10-09T00:11:14.715Z,98601.16
2022-10-09T00:13:42.196Z,98606.78
2022-10-09T00:16:11.832Z,98600.16
2022-10-09T00:18:39.657Z,98592.38
2022-10-09T00:21:15.202Z,98599.72
2022-10-09T00:23:42.291Z,98594.34
2022-10-09T00:26:09.423Z,98595.81
2022-10-09T00:28:38.735Z,98597.03
2022-10-09T00:31:07.671Z,98588.28
2022-10-09T00:33:35.521Z,98590.97
2022-10-09T00:36:07.808Z,98593.63
2022-10-09T00:38:35.417Z,98584.63
2022-10-09T00:41:02.455Z,98582.16
2022-10-09T00:43:46.787Z,98582.91
2022-10-09T00:46:22.935Z,98579.69
2022-10-09T00:49:05.113Z,98571.44
2022-10-09T00:51:34.507Z,98567.53
2022-10-09T00:54:07.921Z,98558.53
2022-10-09T00:56:35.745Z,98567.28
2022-10-09T00:59:03.691Z,98562.16
2022-10-09T01:01:30.807Z,98560.19
2022-10-09T01:03:57.854Z,98552.66
2022-10-09T01:06:57.137Z,98550.72
2022-10-09T01:09:29.389Z,98547.53
2022-10-09T01:12:01.080Z,98547.31
2022-10-09T01:14:42.290Z,98548.59
2022-10-09T01:17:29.775Z,98545.91
2022-10-09T01:20:23.401Z,98538.31
2022-10-09T01:23:07.104Z,98539.78
2022-10-09T01:25:49.659Z,98543.41
2022-10-09T01:28:18.552Z,98536.09
2022-10-09T01:30:46.735Z,98541.22
2022-10-09T01:33:15.554Z,98536.56
2022-10-09T01:35:45.092Z,98538.78
2022-10-09T01:38:12.083Z,98531.22
2022-10-09T01:40:39.743Z,98540.22
2022-10-09T01:43:06.716Z,98540.94
2022-10-09T01:45:43.550Z,98529.50
2022-10-09T01:48:15.409Z,98531.22
2022-10-09T01:50:46.186Z,98527.13
2022-10-09T01:53:19.716Z,98523.78
2022-10-09T01:56:13.217Z,98529.91
2022-10-09T01:58:53.344Z,98524.34
2022-10-09T02:01:32.583Z,98519.41
2022-10-09T02:04:01.910Z,98521.09
2022-10-09T02:06:31.494Z,98529.59
2022-10-09T02:08:59.474Z,98524.44
2022-10-09T02:11:30.248Z,98516.41
2022-10-09T02:13:58.809Z,98514.94
2022-10-09T02:16:43.777Z,98508.59
2022-10-09T02:19:29.827Z,98500.31
2022-10-09T02:22:30.856Z,98499.56
2022-10-09T02:25:00.728Z,98497.63
2022-10-09T02:27:29.095Z,98498.59
2022-10-09T02:29:56.513Z,98500.53
2022-10-09T02:32:23.944Z,98500.53
2022-10-09T02:34:51.709Z,98503.72
2022-10-09T02:37:18.805Z,98505.91
2022-10-09T02:39:45.839Z,98509.59
2022-10-09T02:42:12.851Z,98509.84
2022-10-09T02:44:39.903Z,98507.69
2022-10-09T02:47:06.960Z,98509.84
2022-10-09T02:49:35.742Z,98512.03
2022-10-09T02:52:02.690Z,98510.81
2022-10-09T02:54:29.751Z,98501.03
2022-10-09T02:56:56.728Z,98503.97
2022-10-09T02:59:23.739Z,98507.59
2022-10-09T03:01:50.864Z,98503.66
2022-10-09T03:04:17.943Z,98505.13
2022-10-09T03:06:44.924Z,98500.50
2022-10-09T03:09:11.938Z,98497.59
2022-10-09T03:11:38.947Z,98497.84
2022-10-09T03:14:05.976Z,98497.84
2022-10-09T03:16:33.070Z,98504.66
2022-10-09T03:19:00.390Z,98501.00
2022-10-09T03:21:28.445Z,98501.00
2022-10-09T03:23:56.112Z,98499.75
2022-10-09T03:26:25.503Z,98498.53
2022-10-09T03:28:54.117Z,98500.00
2022-10-09T03:31:46.917Z,98500.00
2022-10-09T03:34:12.306Z,98503.38
2022-10-09T03:36:39.825Z,98495.13
2022-10-09T03:39:06.801Z,98499.75
2022-10-09T03:41:33.981Z,98491.19
2022-10-09T03:44:01.170Z,98505.13
2022-10-09T03:46:28.667Z,98497.31
2022-10-09T03:48:55.829Z,98503.66
2022-10-09T03:51:22.831Z,98495.91
2022-10-09T03:53:49.821Z,98497.84
2022-10-09T03:56:16.938Z,98500.75
2022-10-09T03:58:43.914Z,98503.50
2022-10-09T04:01:10.950Z,98494.50
2022-10-09T04:03:38.087Z,98497.16
2022-10-09T04:06:05.361Z,98492.53
2022-10-09T04:08:32.339Z,98490.56
2022-10-09T04:11:00.500Z,98489.88
2022-10-09T04:13:27.877Z,98496.69
2022-10-09T04:15:55.107Z,98501.81
2022-10-09T04:18:22.730Z,98492.53
2022-10-09T04:20:54.986Z,98500.59
2022-10-09T04:23:25.116Z,98488.63
2022-10-09T04:25:58.541Z,98489.56
2022-10-09T04:28:29.743Z,98493.50
2022-10-09T04:31:00.193Z,98493.03
2022-10-09T04:33:27.619Z,98491.59
2022-10-09T04:35:55.477Z,98488.19
2022-10-09T04:38:23.019Z,98478.66
2022-10-09T04:41:04.681Z,98494.03
2022-10-09T04:43:32.574Z,98488.47
2022-10-09T04:45:59.646Z,98491.16
2022-10-09T04:48:26.777Z,98497.97
2022-10-09T04:50:53.715Z,98496.50
2022-10-09T04:53:20.889Z,98501.38
2022-10-09T04:55:48.035Z,98500.13
2022-10-09T04:58:15.051Z,98500.13
2022-10-09T05:00:44.194Z,98500.84
2022-10-09T05:03:12.098Z,98494.03
2022-10-09T05:05:39.341Z,98501.63
2022-10-09T05:08:06.660Z,98509.44
2022-10-09T05:10:33.708Z,98509.97
2022-10-09T05:13:00.809Z,98505.31
2022-10-09T05:15:27.865Z,98501.41
2022-10-09T05:17:54.951Z,98502.88
2022-10-09T05:20:22.169Z,98507.00
2022-10-09T05:22:49.588Z,98509.69
2022-10-09T05:25:17.129Z,98502.13
2022-10-09T05:27:44.097Z,98503.09
2022-10-09T05:30:11.809Z,98513.31
2022-10-09T05:32:38.861Z,98500.41
2022-10-09T05:35:06.291Z,98505.03
2022-10-09T05:37:33.278Z,98502.88
2022-10-09T05:40:00.321Z,98505.56
2022-10-09T05:42:27.383Z,98500.41
2022-10-09T05:44:54.415Z,98505.03
2022-10-09T05:47:21.792Z,98508.97
2022-10-09T05:49:48.760Z,98514.81
2022-10-09T05:52:15.743Z,98517.31
2022-10-09T05:54:43.130Z,98516.84
2022-10-09T05:57:10.400Z,98524.22
2022-10-09T05:59:37.379Z,98525.88
2022-10-09T06:02:04.857Z,98527.09
2022-10-09T06:04:31.906Z,98535.16
2022-10-09T06:06:58.908Z,98525.88
2022-10-09T06:09:26.991Z,98529.78
2022-10-09T06:11:55.541Z,98535.84
2022-10-09T06:14:22.882Z,98536.59
2022-10-09T06:16:50.827Z,98543.66
2022-10-09T06:19:19.571Z,98547.16
2022-10-09T06:21:47.509Z,98547.59
2022-10-09T06:24:24.462Z,98548.06
2022-10-09T06:26:55.041Z,98552.69
2022-10-09T06:29:22.242Z,98554.13
2022-10-09T06:31:49.222Z,98562.41
2022-10-09T06:34:16.260Z,98568.78
2022-10-09T06:36:43.429Z,98562.41
2022-10-09T06:39:10.905Z,98566.56
2022-10-09T06:41:37.918Z,98560.69
2022-10-09T06:44:07.653Z,98565.09
2022-10-09T06:46:41.109Z,98563.16
2022-10-09T06:49:10.301Z,98576.78
2022-10-09T06:51:37.842Z,98564.31
2022-10-09T06:54:10.667Z,98575.28
2022-10-09T06:56:37.862Z,98566.78
2022-10-09T06:59:07.607Z,98568.25
2022-10-09T07:01:35.121Z,98572.16
2022-10-09T07:04:07.292Z,98575.78
2022-10-09T07:06:38.776Z,98567.50
2022-10-09T07:09:08.849Z,98576.78
2022-10-09T07:11:38.466Z,98576.50
2022-10-09T07:14:07.666Z,98580.66
2022-10-09T07:16:37.801Z,98581.63
2022-10-09T07:19:07.889Z,98579.88
2022-10-09T07:21:36.085Z,98583.78
2022-10-09T07:24:04.453Z,98591.84
2022-10-09T07:26:33.886Z,98586.69
2022-10-09T07:29:01.294Z,98594.97
2022-10-09T07:31:28.400Z,98594.47
2022-10-09T07:33:57.142Z,98593.25
2022-10-09T07:36:24.889Z,98607.63
2022-10-09T07:38:53.577Z,98612.50
2022-10-09T07:41:21.869Z,98612.97
2022-10-09T07:43:49.082Z,98619.81
2022-10-09T07:46:18.775Z,98624.16
2022-10-09T07:48:46.402Z,98628.03
2022-10-09T07:51:22.423Z,98637.03
2022-10-09T07:53:49.938Z,98639.72
2022-10-09T07:56:22.230Z,98645.84
2022-10-09T07:58:50.799Z,98647.78
2022-10-09T08:01:20.386Z,98654.38
2022-10-09T08:03:48.469Z,98651.19
2022-10-09T08:06:16.308Z,98665.84
2022-10-09T08:08:43.670Z,98658.75
2022-10-09T08:11:16.093Z,98661.69
2022-10-09T08:13:44.143Z,98660.66
2022-10-09T08:16:11.619Z,98669.91
2022-10-09T08:18:38.796Z,98677.69
2022-10-09T08:21:08.613Z,98678.66
2022-10-09T08:23:36.062Z,98681.25
2022-10-09T08:26:04.323Z,98686.38
2022-10-09T08:28:32.039Z,98683.19
2022-10-09T08:30:59.153Z,98691.75
2022-10-09T08:33:26.328Z,98699.81
2022-10-09T08:35:54.674Z,98701.78
2022-10-09T08:38:45.707Z,98708.09
2022-10-09T08:41:17.668Z,98723.53
2022-10-09T08:43:53.414Z,98725.03
2022-10-09T08:46:26.944Z,98724.06
2022-10-09T08:48:55.250Z,98724.31
2022-10-09T08:51:29.948Z,98724.28
2022-10-09T08:54:20.249Z,98723.75
2022-10-09T08:56:49.967Z,98737.84
2022-10-09T08:59:16.971Z,98726.34
2022-10-09T09:02:04.126Z,98734.88
2022-10-09T09:05:03.303Z,98743.19
2022-10-09T09:08:08.369Z,98737.81
2022-10-09T09:10:42.021Z,98745.69
2022-10-09T09:13:18.013Z,98748.16
2022-10-09T09:15:54.939Z,98749.94
2022-10-09T09:18:22.493Z,98752.41
2022-10-09T09:20:58.828Z,98748.00
2022-10-09T09:23:33.075Z,98738.44
2022-10-09T09:26:02.151Z,98737.22
2022-10-09T09:28:32.185Z,98752.78
2022-10-09T09:31:06.469Z,98746.69
2022-10-09T09:33:44.603Z,98752.25
2022-10-09T09:36:24.071Z,98752.25
2022-10-09T09:39:36.256Z,98756.63
2022-10-09T09:41:41.359Z,98763.41
2022-10-09T09:44:11.142Z,98762.97
2022-10-09T09:46:39.855Z,98756.41
2022-10-09T09:49:22.079Z,98757.38
2022-10-09T09:51:50.125Z,98763.53
2022-10-09T09:54:21.864Z,98755.97
2022-10-09T09:59:40.452Z,98765.22
2022-10-09T10:02:20.237Z,98763.72
2022-10-09T10:05:02.083Z,98773.28
2022-10-09T10:07:37.666Z,98764.41
2022-10-09T10:10:18.744Z,98766.34
2022-10-09T10:12:58.244Z,98765.34
2022-10-09T10:15:30.757Z,98776.53
2022-10-09T10:18:17.714Z,98774.31
2022-10-09T10:20:51.313Z,98776.09
2022-10-09T10:23:38.350Z,98770.25
2022-10-09T10:26:40.217Z,98766.88
2022-10-09T10:29:20.085Z,98759.53
2022-10-09T10:32:22.762Z,98762.16
2022-10-09T10:35:10.704Z,98767.72
2022-10-09T10:37:50.705Z,98770.19
2022-10-09T10:40:30.734Z,98776.50
2022-10-09T10:43:06.436Z,98779.41
2022-10-09T10:46:00.561Z,98771.78
2022-10-09T10:48:37.258Z,98778.09
2022-10-09T10:51:36.103Z,98775.66
2022-10-09T10:54:36.714Z,98776.09
2022-10-09T10:57:35.300Z,98769.00
2022-10-09T11:00:06.648Z,98778.56
2022-10-09T11:02:55.729Z,98776.28
2022-10-09T11:05:27.909Z,98773.53
2022-10-09T11:08:34.478Z,98774.72
2022-10-09T11:11:40.444Z,98778.41
2022-10-09T11:14:22.203Z,98781.38
2022-10-09T11:17:26.743Z,98775.03
2022-10-09T11:20:02.578Z,98785.34
2022-10-09T11:22:51.204Z,98775.13
2022-10-09T11:25:21.578Z,98782.75
2022-10-09T11:28:15.275Z,98770.56
2022-10-09T11:30:50.388Z,98777.81
2022-10-09T11:33:17.309Z,98783.72
2022-10-09T11:35:53.211Z,98787.13
2022-10-09T11:38:48.121Z,98776.09
2022-10-09T11:41:18.520Z,98782.44
2022-10-09T11:44:10.462Z,98776.81
2022-10-09T11:47:01.777Z,98773.94
2022-10-09T11:49:51.024Z,98774.66
2022-10-09T11:52:28.674Z,98762.16
2022-10-09T11:54:55.702Z,98775.38
2022-10-09T11:57:29.973Z,98761.72
2022-10-09T12:00:07.236Z,98763.94
2022-10-09T12:02:35.031Z,98753.44
2022-10-09T12:05:02.208Z,98760.25
2022-10-09T12:07:36.079Z,98770.22
2022-10-09T12:10:07.924Z,98766.34
2022-10-09T12:12:38.001Z,98767.38
2022-10-09T12:15:36.238Z,98762.94
2022-10-09T12:18:16.397Z,98764.63
2022-10-09T12:20:48.341Z,98760.75
2022-10-09T12:23:26.650Z,98762.22
2022-10-09T12:25:55.361Z,98770.75
2022-10-09T12:28:38.164Z,98772.53
2022-10-09T12:31:16.144Z,98770.84
2022-10-09T12:33:48.241Z,98764.47
2022-10-09T12:36:27.135Z,98770.09
2022-10-09T12:38:54.966Z,98771.09
2022-10-09T12:41:28.069Z,98774.31
2022-10-09T12:43:57.160Z,98761.91
2022-10-09T12:46:36.863Z,98769.66
2022-10-09T12:49:14.566Z,98761.19
2022-10-09T12:51:41.637Z,98758.78
2022-10-09T12:54:10.191Z,98760.72
2022-10-09T12:56:39.112Z,98756.34
2022-10-09T12:59:11.597Z,98752.13
2022-10-09T13:01:41.167Z,98742.38
2022-10-09T13:04:11.154Z,98739.50
2022-10-09T13:06:46.794Z,98733.66
2022-10-09T13:09:38.809Z,98734.41
2022-10-09T13:12:15.919Z,98731.72
2022-10-09T13:14:53.904Z,98726.22
2022-10-09T13:17:37.724Z,98716.16
2022-10-09T13:20:16.862Z,98712.72
2022-10-09T13:22:57.605Z,98715.19
2022-10-09T13:25:27.653Z,98720.56
2022-10-09T13:27:54.890Z,98716.44
2022-10-09T13:30:22.035Z,98708.88
2022-10-09T13:32:49.938Z,98708.88
2022-10-09T13:35:18.005Z,98701.78
2022-10-09T13:37:45.176Z,98702.53
2022-10-09T13:40:18.187Z,98708.09
2022-10-09T13:42:54.360Z,98698.13
2022-10-09T13:45:21.738Z,98702.28
2022-10-09T13:47:49.084Z,98704.00
2022-10-09T13:50:18.126Z,98694.69
2022-10-09T13:52:45.145Z,98690.06
2022-10-09T13:55:12.670Z,98691.53
2022-10-09T13:57:39.707Z,98688.63
2022-10-09T14:00:07.738Z,98687.91
2022-10-09T14:02:34.800Z,98683.41
2022-10-09T14:05:01.864Z,98685.34
2022-10-09T14:07:28.819Z,98684.34
2022-10-09T14:09:55.837Z,98672.91
2022-10-09T14:12:22.807Z,98672.19
2022-10-09T14:14:49.820Z,98673.66
2022-10-09T14:17:16.845Z,98674.16
2022-10-09T14:19:43.886Z,98662.94
2022-10-09T14:22:11.787Z,98662.00
2022-10-09T14:24:38.804Z,98659.78
2022-10-09T14:27:05.870Z,98653.66
2022-10-09T14:29:33.040Z,98654.41
2022-10-09T14:31:59.994Z,98657.00
2022-10-09T14:34:27.017Z,98652.34
2022-10-09T14:36:54.066Z,98642.28
2022-10-09T14:39:21.088Z,98650.78
2022-10-09T14:41:48.133Z,98648.34
2022-10-09T14:44:15.192Z,98648.56
2022-10-09T14:46:42.190Z,98648.50
2022-10-09T14:49:11.180Z,98639.13
2022-10-09T14:51:40.037Z,98643.50
2022-10-09T14:54:08.378Z,98648.22
2022-10-09T14:56:35.932Z,98641.16
2022-10-09T14:59:03.423Z,98640.72
2022-10-09T15:01:30.564Z,98648.34
2022-10-09T15:04:00.259Z,98651.28
2022-10-09T15:06:28.417Z,98649.38
2022-10-09T15:09:03.196Z,98644.06
2022-10-09T15:11:32.475Z,98647.75
2022-10-09T15:13:59.502Z,98649.47
2022-10-09T15:16:27.112Z,98651.63
2022-10-09T15:18:55.250Z,98642.66
2022-10-09T15:21:24.834Z,98655.13
2022-10-09T15:23:55.125Z,98645.59
2022-10-09T15:26:22.878Z,98650.03
2022-10-09T15:28:50.094Z,98644.66
2022-10-09T15:31:24.487Z,98641.47
2022-10-09T15:33:52.985Z,98640.69
2022-10-09T15:36:20.977Z,98648.75
2022-10-09T15:38:48.610Z,98644.16
2022-10-09T15:41:27.544Z,98644.66
2022-10-09T15:43:57.246Z,98641.00
2022-10-09T15:46:24.911Z,98636.38
2022-10-09T15:48:52.086Z,98641.47
2022-10-09T15:51:19.918Z,98641.47
2022-10-09T15:53:48.637Z,98633.66
2022-10-09T15:56:18.313Z,98635.81
2022-10-09T15:58:45.334Z,98636.09
2022-10-09T16:01:14.278Z,98628.06
2022-10-09T16:03:41.551Z,98629.59
2022-10-09T16:06:12.185Z,98630.81
2022-10-09T16:08:39.887Z,98631.34
2022-10-09T16:13:43.991Z,98633.72
2022-10-09T16:16:15.431Z,98638.19
2022-10-09T16:18:42.480Z,98634.75
2022-10-09T16:21:15.466Z,98629.38
2022-10-09T16:23:43.621Z,98627.69
2022-10-09T16:26:11.669Z,98629.16
2022-10-09T16:28:38.842Z,98627.47
2022-10-09T16:31:06.572Z,98627.69
2022-10-09T16:33:33.625Z,98626.25
2022-10-09T16:36:12.022Z,98628.44
2022-10-09T16:38:40.815Z,98622.63
2022-10-09T16:41:13.366Z,98625.09
2022-10-09T16:43:42.723Z,98628.28
2022-10-09T16:46:27.435Z,98632.91
2022-10-09T16:48:55.952Z,98640.78
2022-10-09T16:51:28.351Z,98635.63
2022-10-09T16:53:58.101Z,98634.66
2022-10-09T16:56:27.695Z,98639.78
2022-10-09T16:58:59.541Z,98623.72
2022-10-09T17:01:27.763Z,98636.19
2022-10-09T17:03:56.326Z,98633.00
2022-10-09T17:06:24.690Z,98638.38
2022-10-09T17:08:53.442Z,98637.66
2022-10-09T17:11:21.329Z,98645.94
2022-10-09T17:13:48.822Z,98652.75
2022-10-09T17:16:19.534Z,98645.47
2022-10-09T17:18:48.319Z,98660.34
2022-10-09T17:21:17.326Z,98664.50
2022-10-09T17:23:45.576Z,98656.72
2022-10-09T17:26:15.368Z,98659.19
2022-10-09T17:28:43.030Z,98669.94
2022-10-09T17:31:14.492Z,98671.94
2022-10-09T17:33:43.280Z,98669.75
2022-10-09T17:36:11.606Z,98667.34
2022-10-09T17:38:38.741Z,98666.38
2022-10-09T17:41:11.267Z,98663.44
2022-10-09T17:43:39.121Z,98664.94
2022-10-09T17:46:06.718Z,98670.56
2022-10-09T17:48:35.020Z,98679.34
2022-10-09T17:51:06.433Z,98665.44
2022-10-09T17:53:33.387Z,98669.84
2022-10-09T17:56:04.177Z,98670.34
2022-10-09T17:58:31.695Z,98662.53
2022-10-09T18:00:58.928Z,98669.84
2022-10-09T18:03:25.967Z,98673.97
2022-10-09T18:05:53.046Z,98673.25
2022-10-09T18:08:20.240Z,98685.41
2022-10-09T18:10:47.407Z,98677.66
2022-10-09T18:13:14.573Z,98683.50
2022-10-09T18:15:44.038Z,98680.56
2022-10-09T18:18:11.693Z,98682.06
2022-10-09T18:20:40.178Z,98680.56
2022-10-09T18:23:08.466Z,98686.19
2022-10-09T18:25:36.201Z,98687.66
2022-10-09T18:28:03.234Z,98685.72
2022-10-09T18:30:30.393Z,98690.09
2022-10-09T18:32:57.367Z,98692.31
2022-10-09T18:35:25.822Z,98688.88
2022-10-09T18:37:52.924Z,98684.47
2022-10-09T18:40:20.271Z,98692.53
2022-10-09T18:42:47.733Z,98682.78
2022-10-09T18:45:16.445Z,98689.34
2022-10-09T18:47:44.339Z,98683.22
2022-10-09T18:50:13.812Z,98691.28
2022-10-09T18:52:42.594Z,98686.13
2022-10-09T18:55:12.703Z,98690.25
2022-10-09T18:57:40.949Z,98678.09
2022-10-09T19:00:08.912Z,98679.59
2022-10-09T19:02:36.064Z,98677.63
2022-10-09T19:05:03.567Z,98678.84
2022-10-09T19:07:30.700Z,98681.28
2022-10-09T19:09:57.795Z,98683.75
2022-10-09T19:12:25.314Z,98687.88
2022-10-09T19:14:52.568Z,98690.31
2022-10-09T19:17:19.946Z,98692.00
2022-10-09T19:19:47.010Z,98699.31
2022-10-09T19:22:16.431Z,98700.25
2022-10-09T19:24:45.363Z,98710.50
2022-10-09T19:27:12.511Z,98704.88
2022-10-09T19:29:39.571Z,98712.19
2022-10-09T19:32:08.058Z,98719.03
2022-10-09T19:34:35.067Z,98722.44
2022-10-09T19:37:02.866Z,98728.28
2022-10-09T19:39:30.016Z,98728.75
2022-10-09T19:41:56.980Z,98734.59
2022-10-09T19:44:24.062Z,98738.25
2022-10-09T19:46:51.259Z,98746.25
2022-10-09T19:49:19.609Z,98744.03
2022-10-09T19:51:46.654Z,98748.19
2022-10-09T19:54:13.731Z,98752.09
2022-10-09T19:56:40.772Z,98760.63
2022-10-09T19:59:09.334Z,98768.19
2022-10-09T20:01:37.952Z,98771.13
2022-10-09T20:04:08.249Z,98768.44
2022-10-09T20:06:40.910Z,98775.00
2022-10-09T20:09:09.497Z,98774.00
2022-10-09T20:11:37.925Z,98774.00
2022-10-09T20:14:05.473Z,98785.97
2022-10-09T20:16:33.843Z,98787.22
2022-10-09T20:19:01.822Z,98801.34
2022-10-09T20:21:31.144Z,98798.44
2022-10-09T20:24:00.499Z,98804.03
2022-10-09T20:26:28.316Z,98812.09
2022-10-09T20:28:55.567Z,98809.19
2022-10-09T20:31:24.731Z,98813.31
2022-10-09T20:33:52.641Z,98818.44
2022-10-09T20:36:24.845Z,98823.78
2022-10-09T20:38:51.938Z,98822.34
2022-10-09T20:41:19.099Z,98829.41
2022-10-09T20:43:50.827Z,98838.19
2022-10-09T20:46:17.908Z,98835.50
2022-10-09T20:48:45.398Z,98837.44
2022-10-09T20:51:12.401Z,98836.44
2022-10-09T20:53:39.528Z,98838.13
2022-10-09T20:56:09.697Z,98847.16
2022-10-09T20:58:36.830Z,98837.88
2022-10-09T21:01:06.291Z,98838.34
2022-10-09T21:03:34.204Z,98840.56
2022-10-09T21:06:06.027Z,98841.28
2022-10-09T21:08:33.408Z,98844.44
2022-10-09T21:11:00.542Z,98839.31
2022-10-09T21:13:27.575Z,98851.72
2022-10-09T21:15:54.747Z,98850.53
2022-10-09T21:18:21.902Z,98850.28
2022-10-09T21:20:49.757Z,98853.94
2022-10-09T21:23:18.805Z,98852.03
2022-10-09T21:25:51.221Z,98855.44
2022-10-09T21:28:22.267Z,98854.44
2022-10-09T21:30:49.652Z,98862.03
2022-10-09T21:33:18.289Z,98858.13
2022-10-09T21:35:48.490Z,98870.56
2022-10-09T21:38:18.084Z,98868.13
2022-10-09T21:40:46.432Z,98868.34
2022-10-09T21:43:14.071Z,98861.50
2022-10-09T21:45:41.674Z,98866.63
2022-10-09T21:48:08.807Z,98864.91
2022-10-09T21:50:36.979Z,98863.94
2022-10-09T21:53:04.568Z,98866.16
2022-10-09T21:55:31.882Z,98874.44
2022-10-09T21:57:58.994Z,98870.03
2022-10-09T22:00:25.982Z,98874.22
2022-10-09T22:02:53.455Z,98864.97
2022-10-09T22:05:20.613Z,98870.59
2022-10-09T22:07:47.537Z,98866.69
2022-10-09T22:10:14.552Z,98865.22
2022-10-09T22:12:41.653Z,98866.47
2022-10-09T22:15:08.944Z,98864.28
2022-10-09T22:17:35.919Z,98861.63
2022-10-09T22:20:03.168Z,98865.53
2022-10-09T22:22:30.163Z,98867.00
2022-10-09T22:24:57.116Z,98860.63
2022-10-09T22:27:24.095Z,98861.16
2022-10-09T22:29:51.231Z,98863.09
2022-10-09T22:32:18.221Z,98859.94
2022-10-09T22:34:45.184Z,98866.25
2022-10-09T22:37:12.187Z,98862.13
2022-10-09T22:39:39.255Z,98862.38
2022-10-09T22:42:06.232Z,98864.84
2022-10-09T22:44:33.201Z,98856.31
2022-10-09T22:47:00.324Z,98865.81
2022-10-09T22:49:27.844Z,98861.66
2022-10-09T22:51:54.896Z,98869.22
2022-10-09T22:54:22.454Z,98864.56
2022-10-09T22:56:49.498Z,98864.31
2022-10-09T22:59:21.292Z,98862.88
2022-10-09T23:01:55.130Z,98869.47
2022-10-09T23:04:23.372Z,98864.06
2022-10-09T23:06:52.378Z,98871.84
2022-10-09T23:09:22.271Z,98867.72
2022-10-09T23:11:49.598Z,98866.72
2022-10-09T23:14:16.664Z,98869.63
2022-10-09T23:16:43.938Z,98858.91
2022-10-09T23:19:11.534Z,98861.34
2022-10-09T23:21:40.915Z,98865.72
2022-10-09T23:24:09.368Z,98863.03
2022-10-09T23:26:46.333Z,98861.84
2022-10-09T23:29:17.318Z,98859.38
2022-10-09T23:31:45.110Z,98861.56
2022-10-09T23:34:12.449Z,98856.94
2022-10-09T23:36:39.528Z,98849.88
2022-10-09T23:39:07.373Z,98853.31
2022-10-09T23:41:34.781Z,98855.47
2022-10-09T23:44:01.912Z,98846.44
2022-10-09T23:46:31.878Z,98854.50
2022-10-09T23:48:59.171Z,98849.13
2022-10-09T23:51:27.188Z,98844.28
2022-10-09T23:53:54.465Z,98841.34
2022-10-09T23:56:39.597Z,98831.56
2022-10-09T23:59:07.427Z,98837.19
